Details From LQMO - MOSTAR
To LQBK - BANJA LUKA
Flight Number -
Tags generated
Created
Modified
Stats Distance 102 nm / 190 km
Max Altitude 9,300 ft / 2,835 m
Waypoints 3
Social Downloads 1
Likes 0
Share VATSIM

Download

Looking for another format? Having issues loading an existing format? Contact us
Advertisement - Login to hide

Notes

Basic altitude profile: - Ascent Rate: 2500ft/min - Ascent Speed: 150kts - Cruise Altitude: 10000ft - Cruise Speed: 275kts - Descent Rate: 1500ft/min - Descent Speed: 111kts Options: - Use NATs: yes - Use PACOTS: yes - Use low airways: yes - Use high airways: yes

Route

LQMO EDALA LQBK

ID Type Via Altitude Latitude Longitude Leg Dist Tot Dist Heading (true) Name
O LQMO APT - 0 ft / 0 m 43.28292˚ 17.84587˚ - 0 nm - MOSTAR
EDALA FIX - 9,300 ft / 2,835 m 44.22500˚ 17.49139˚ 58 nm 58 nm 345° / 345° -
O LQBK APT - 0 ft / 0 m 44.94157˚ 17.29708˚ 43 nm 102 nm 349° / 349° BANJA LUKA

Altitude Profile

Advertisement - Login to hide

LQMO

Details ICAO LQMO (OMO)
Name MOSTAR
Region Bosnia and Herzegovinia
Timezone Europe/Sarajevo (UTC+2.0)
Stats Elevation 156 ft / 48 m (AMSL)
Location 43.282916° 17.845865°
Runways 1
Magnetic Variation 4.138° E

METAR

LQMO 251100Z 03004KT 320V080 9999 FEW040TCU FEW045 29/15 Q1011

Decode

TAF

Not found

Departure Runways

ID Width Length Bearing (true) Bearing (mag) Surface Threshold Offset Overrun Length
16 158 ft / 48 m 7,843 ft / 2,391 m 157.82° 153.68° Asphalt 0 ft / 0 m 0 ft / 0 m
34 158 ft / 48 m 7,843 ft / 2,391 m 337.83° 333.69° Asphalt 0 ft / 0 m 0 ft / 0 m

LQBK

Details ICAO LQBK (BNX)
Name BANJA LUKA
Region Bosnia and Herzegovinia
Timezone Europe/Sarajevo (UTC+2.0)
Stats Elevation 400 ft / 122 m (AMSL)
Location 44.941573° 17.297081°
Runways 1
Magnetic Variation 4.181° E

METAR

LQBK 251100Z 34008KT 9999 FEW030TCU SCT037 27/17 Q1015 NOSIG

Decode

TAF

Not found

Destination Runways

ID Width Length Bearing (true) Bearing (mag) Surface Threshold Offset Overrun Length
17 148 ft / 45 m 8,174 ft / 2,491 m 169.53° 165.35° Concrete 0 ft / 0 m 0 ft / 0 m
35 148 ft / 45 m 8,174 ft / 2,491 m 349.54° 345.36° Concrete 0 ft / 0 m 0 ft / 0 m

Approach Navaids

Runway Type Ident Frequency Range Bearing (true) Bearing (mag) Slope Elevation
17 Localiser BAL 108.70 MHz 25 nm / 46 km 170.00° 165.82° - 413 ft / 126 m (AMSL)
17 Glidescope BAL 108.70 MHz 25 nm / 46 km 170.00° 165.82° 3.00° 428 ft / 130 m (AMSL)